createdAt,value
2018-03-17T00:02:08.620Z,7.90
2018-03-17T00:04:36.161Z,8.33
2018-03-17T00:07:03.759Z,8.27
2018-03-17T00:09:31.308Z,8.30
2018-03-17T00:11:58.851Z,7.20
2018-03-17T00:14:26.764Z,8.30
2018-03-17T00:16:54.264Z,8.37
2018-03-17T00:19:21.758Z,9.47
2018-03-17T00:21:50.017Z,9.23
2018-03-17T00:24:17.547Z,8.07
2018-03-17T00:26:45.039Z,7.30
2018-03-17T00:29:13.303Z,8.33
2018-03-17T00:31:40.805Z,8.17
2018-03-17T00:34:08.304Z,7.33
2018-03-17T00:36:36.616Z,8.17
2018-03-17T00:39:04.128Z,7.73
2018-03-17T00:41:32.433Z,7.23
2018-03-17T00:43:59.948Z,7.70
2018-03-17T00:46:28.253Z,6.03
2018-03-17T00:48:55.748Z,6.33
2018-03-17T00:51:23.241Z,7.37
2018-03-17T00:53:52.740Z,6.73
2018-03-17T00:56:21.528Z,7.30
2018-03-17T00:58:49.835Z,7.33
2018-03-17T01:01:17.333Z,6.97
2018-03-17T01:03:44.838Z,8.57
2018-03-17T01:06:13.820Z,7.70
2018-03-17T01:08:41.343Z,6.93
2018-03-17T01:11:08.836Z,7.60
2018-03-17T01:13:37.118Z,8.03
2018-03-17T01:16:05.377Z,8.07
2018-03-17T01:18:32.871Z,7.13
2018-03-17T01:21:01.132Z,6.13
2018-03-17T01:23:29.388Z,8.03
2018-03-17T01:25:57.736Z,6.27
2018-03-17T01:28:25.312Z,5.53
2018-03-17T01:30:53.603Z,5.73
2018-03-17T01:33:21.101Z,5.67
2018-03-17T01:35:48.609Z,6.67
2018-03-17T01:38:18.187Z,6.27
2018-03-17T01:40:45.696Z,6.07
2018-03-17T01:43:13.950Z,5.63
2018-03-17T01:45:41.460Z,5.30
2018-03-17T01:48:08.959Z,5.70
2018-03-17T01:50:36.464Z,5.97
2018-03-17T01:53:04.728Z,6.13
2018-03-17T01:55:32.996Z,5.50
2018-03-17T01:58:00.494Z,5.77
2018-03-17T02:00:27.992Z,7.43
2018-03-17T02:02:55.504Z,6.53
2018-03-17T02:05:23.031Z,6.67
2018-03-17T02:07:51.284Z,6.50
2018-03-17T02:10:18.790Z,6.80
2018-03-17T02:12:46.281Z,5.93
2018-03-17T02:15:13.790Z,5.50
2018-03-17T02:17:42.046Z,5.33
2018-03-17T02:20:09.541Z,4.97
2018-03-17T02:22:37.052Z,5.00
2018-03-17T02:25:04.549Z,4.83
2018-03-17T02:27:32.812Z,5.57
2018-03-17T02:30:00.311Z,5.17
2018-03-17T02:32:27.809Z,5.27
2018-03-17T02:34:55.302Z,5.17
2018-03-17T02:37:23.596Z,5.93
2018-03-17T02:39:51.105Z,4.87
2018-03-17T02:42:18.591Z,5.07
2018-03-17T02:44:46.859Z,4.70
2018-03-17T02:47:15.132Z,4.73
2018-03-17T02:49:43.455Z,5.70
2018-03-17T02:52:10.937Z,6.57
2018-03-17T02:54:38.444Z,5.40
2018-03-17T02:57:05.930Z,4.90
2018-03-17T02:59:33.455Z,5.97
2018-03-17T03:02:01.714Z,5.93
2018-03-17T03:04:29.973Z,5.63
2018-03-17T03:06:57.461Z,6.23
2018-03-17T03:09:25.705Z,6.90
2018-03-17T03:11:53.194Z,6.77
2018-03-17T03:14:21.494Z,7.30
2018-03-17T03:16:48.990Z,5.97
2018-03-17T03:19:16.476Z,5.57
2018-03-17T03:21:44.731Z,6.00
2018-03-17T03:24:12.222Z,5.90
2018-03-17T03:26:39.715Z,5.93
2018-03-17T03:29:07.206Z,6.20
2018-03-17T03:31:34.693Z,5.90
2018-03-17T03:34:02.951Z,5.60
2018-03-17T03:36:30.441Z,6.33
2018-03-17T03:38:58.691Z,4.80
2018-03-17T03:41:26.186Z,5.40
2018-03-17T03:43:53.675Z,5.00
2018-03-17T03:46:21.162Z,4.93
2018-03-17T03:48:48.638Z,4.43
2018-03-17T03:51:16.930Z,5.80
2018-03-17T03:53:44.418Z,5.77
2018-03-17T03:56:12.673Z,5.60
2018-03-17T03:58:40.178Z,6.10
2018-03-17T04:01:07.671Z,6.00
2018-03-17T04:03:35.923Z,6.17
2018-03-17T04:06:03.412Z,6.63
2018-03-17T04:08:30.888Z,6.37
2018-03-17T04:10:58.385Z,6.53
2018-03-17T04:13:25.866Z,6.97
2018-03-17T04:15:54.123Z,6.70
2018-03-17T04:18:21.618Z,6.10
2018-03-17T04:20:49.115Z,6.00
2018-03-17T04:23:16.600Z,5.90
2018-03-17T04:25:44.103Z,6.30
2018-03-17T04:28:11.579Z,6.27
2018-03-17T04:30:39.081Z,5.50
2018-03-17T04:33:06.562Z,5.77
2018-03-17T04:35:34.805Z,6.10
2018-03-17T04:38:02.295Z,6.63
2018-03-17T04:40:30.568Z,6.80
2018-03-17T04:42:58.814Z,6.03
2018-03-17T04:45:26.306Z,6.50
2018-03-17T04:50:47.116Z,6.60
2018-03-17T04:53:15.385Z,8.00
2018-03-17T04:55:42.881Z,7.07
2018-03-17T04:58:10.376Z,6.67
2018-03-17T05:00:37.882Z,7.23
2018-03-17T05:03:05.482Z,7.67
2018-03-17T05:05:32.984Z,8.13
2018-03-17T05:08:00.481Z,8.13
2018-03-17T05:10:27.979Z,7.20
2018-03-17T05:12:56.988Z,7.47
2018-03-17T05:15:24.491Z,8.30
2018-03-17T05:17:51.994Z,7.20
2018-03-17T05:20:19.500Z,7.10
2018-03-17T05:22:47.001Z,7.53
2018-03-17T05:25:14.508Z,7.63
2018-03-17T05:27:42.081Z,7.17
2018-03-17T05:30:09.624Z,6.03
2018-03-17T05:32:37.133Z,7.10
2018-03-17T05:35:04.628Z,7.10
2018-03-17T05:37:32.898Z,6.33
2018-03-17T05:40:01.165Z,7.93
2018-03-17T05:42:28.677Z,9.67
2018-03-17T05:44:56.177Z,8.43
2018-03-17T05:47:23.689Z,9.20
2018-03-17T05:49:51.267Z,11.83
2018-03-17T05:52:18.781Z,12.30
2018-03-17T05:54:46.292Z,10.23
2018-03-17T05:57:13.797Z,10.00
2018-03-17T05:59:41.304Z,11.00
2018-03-17T06:02:08.817Z,11.07
2018-03-17T06:04:36.331Z,11.03
2018-03-17T06:07:03.840Z,11.07
2018-03-17T06:09:32.107Z,11.43
2018-03-17T06:11:59.621Z,12.03
2018-03-17T06:14:27.166Z,11.43
2018-03-17T06:16:55.436Z,10.97
2018-03-17T06:19:22.938Z,10.40
2018-03-17T06:21:50.437Z,9.80
2018-03-17T06:24:17.936Z,10.67
2018-03-17T06:26:45.445Z,11.00
2018-03-17T06:29:12.954Z,12.47
2018-03-17T06:31:40.465Z,11.77
2018-03-17T06:34:07.969Z,12.37
2018-03-17T06:36:36.235Z,9.77
2018-03-17T06:39:03.771Z,11.60
2018-03-17T06:41:31.274Z,11.20
2018-03-17T06:43:58.777Z,8.03
2018-03-17T06:46:26.282Z,9.13
2018-03-17T06:48:53.768Z,9.20
2018-03-17T06:51:21.268Z,10.23
2018-03-17T06:53:49.525Z,9.87
2018-03-17T06:56:17.028Z,9.50
2018-03-17T06:58:44.531Z,10.57
2018-03-17T07:01:17.800Z,10.10
2018-03-17T07:03:45.293Z,8.90
2018-03-17T07:06:12.832Z,10.87
2018-03-17T07:08:40.336Z,11.03
2018-03-17T07:11:08.764Z,7.90
2018-03-17T07:13:36.259Z,8.80
2018-03-17T07:16:03.784Z,10.80
2018-03-17T07:18:31.276Z,8.27
2018-03-17T07:20:58.789Z,10.00
2018-03-17T07:23:27.046Z,8.67
2018-03-17T07:25:55.322Z,8.97
2018-03-17T07:28:23.592Z,11.20
2018-03-17T07:30:51.090Z,8.07
2018-03-17T07:33:18.668Z,10.87
2018-03-17T07:35:46.168Z,9.50
2018-03-17T07:38:14.440Z,10.50
2018-03-17T07:40:41.932Z,8.50
2018-03-17T07:43:09.432Z,8.03
2018-03-17T07:45:37.106Z,9.93
2018-03-17T07:48:04.624Z,10.33
2018-03-17T07:50:32.117Z,9.87
2018-03-17T07:52:59.621Z,9.33
2018-03-17T07:55:27.245Z,10.40
2018-03-17T07:57:54.749Z,9.23
2018-03-17T08:00:22.249Z,9.27
2018-03-17T08:02:49.751Z,9.20
2018-03-17T08:05:18.011Z,10.20
2018-03-17T08:07:46.280Z,8.93
2018-03-17T08:10:14.550Z,10.37
2018-03-17T08:12:42.049Z,9.13
2018-03-17T08:15:09.544Z,9.47
2018-03-17T08:17:37.056Z,12.03
2018-03-17T08:20:04.685Z,9.83
2018-03-17T08:22:32.185Z,12.57
2018-03-17T08:25:00.446Z,11.17
2018-03-17T08:27:27.939Z,10.73
2018-03-17T08:29:56.836Z,10.53
2018-03-17T08:32:24.477Z,12.70
2018-03-17T08:34:52.736Z,13.17
2018-03-17T08:37:20.390Z,11.83
2018-03-17T08:39:47.888Z,13.10
2018-03-17T08:42:15.660Z,13.50
2018-03-17T08:44:43.173Z,13.47
2018-03-17T08:47:10.680Z,13.70
2018-03-17T08:49:38.181Z,14.43
2018-03-17T08:52:05.694Z,14.67
2018-03-17T08:54:33.206Z,13.07
2018-03-17T08:57:00.710Z,13.07
2018-03-17T08:59:28.196Z,14.37
2018-03-17T09:01:55.706Z,12.77
2018-03-17T09:04:23.213Z,13.33
2018-03-17T09:06:50.721Z,14.63
2018-03-17T09:09:18.996Z,14.17
2018-03-17T09:11:47.449Z,11.83
2018-03-17T09:14:15.205Z,12.97
2018-03-17T09:16:42.712Z,15.13
2018-03-17T09:19:11.819Z,13.03
2018-03-17T09:21:40.338Z,11.07
2018-03-17T09:24:07.926Z,12.90
2018-03-17T09:26:36.282Z,14.87
2018-03-17T09:29:04.835Z,12.93
2018-03-17T09:31:32.332Z,13.40
2018-03-17T09:33:59.850Z,10.07
2018-03-17T09:36:27.345Z,13.20
2018-03-17T09:38:54.908Z,13.30
2018-03-17T09:41:22.400Z,11.20
2018-03-17T09:43:49.912Z,13.30
2018-03-17T09:46:17.416Z,11.20
2018-03-17T09:48:44.933Z,14.13
2018-03-17T09:51:12.436Z,9.30
2018-03-17T09:53:39.942Z,13.80
2018-03-17T09:56:07.443Z,11.43
2018-03-17T09:58:34.944Z,13.03
2018-03-17T10:01:03.213Z,13.30
2018-03-17T10:03:31.513Z,11.37
2018-03-17T10:05:59.036Z,12.40
2018-03-17T10:08:26.538Z,10.10
2018-03-17T10:10:54.032Z,10.97
2018-03-17T10:13:21.557Z,10.67
2018-03-17T10:15:49.821Z,11.77
2018-03-17T10:18:17.468Z,11.13
2018-03-17T10:20:44.969Z,10.90
2018-03-17T10:23:13.271Z,10.97
2018-03-17T10:25:41.786Z,9.87
2018-03-17T10:28:10.070Z,10.80
2018-03-17T10:30:38.355Z,11.07
2018-03-17T10:33:06.172Z,10.67
2018-03-17T10:35:34.441Z,11.23
2018-03-17T10:38:02.715Z,7.83
2018-03-17T10:40:30.984Z,12.20
2018-03-17T10:42:58.492Z,9.27
2018-03-17T10:45:25.986Z,9.93
2018-03-17T10:47:53.609Z,9.43
2018-03-17T10:50:21.895Z,10.23
2018-03-17T10:52:49.400Z,9.77
2018-03-17T10:55:16.994Z,9.60
2018-03-17T10:57:44.492Z,8.90
2018-03-17T11:00:12.010Z,8.87
2018-03-17T11:02:41.433Z,9.80
2018-03-17T11:05:08.988Z,7.37
2018-03-17T11:07:36.484Z,9.93
2018-03-17T11:10:06.996Z,9.77
2018-03-17T11:12:34.516Z,9.27
2018-03-17T11:15:02.008Z,9.20
2018-03-17T11:17:29.516Z,5.97
2018-03-17T11:19:57.024Z,8.50
2018-03-17T11:22:24.523Z,8.17
2018-03-17T11:24:52.785Z,8.73
2018-03-17T11:27:20.294Z,8.53
2018-03-17T11:29:47.791Z,9.73
2018-03-17T11:32:15.286Z,9.90
2018-03-17T11:34:42.882Z,10.10
2018-03-17T11:37:10.374Z,9.33
2018-03-17T11:39:37.893Z,10.93
2018-03-17T11:42:05.452Z,27.10
2018-03-17T11:44:32.952Z,14.40
2018-03-17T11:47:00.465Z,8.43
2018-03-17T11:49:27.972Z,9.27
2018-03-17T11:51:55.470Z,10.73
2018-03-17T11:54:22.972Z,9.50
2018-03-17T11:56:50.465Z,9.47
2018-03-17T11:59:18.088Z,9.20
2018-03-17T12:01:45.616Z,8.70
2018-03-17T12:04:13.122Z,10.40
2018-03-17T12:06:40.622Z,10.13
2018-03-17T12:09:08.158Z,8.70
2018-03-17T12:11:36.419Z,7.73
2018-03-17T12:14:04.706Z,9.90
2018-03-17T12:16:32.346Z,8.97
2018-03-17T12:19:01.626Z,9.17
2018-03-17T12:21:29.116Z,8.90
2018-03-17T12:23:57.384Z,10.77
2018-03-17T12:26:25.701Z,8.67
2018-03-17T12:28:53.255Z,9.83
2018-03-17T12:31:20.808Z,9.13
2018-03-17T12:33:48.420Z,6.63
2018-03-17T12:36:15.984Z,7.87
2018-03-17T12:38:43.581Z,7.90
2018-03-17T12:41:11.934Z,9.73
2018-03-17T12:43:39.472Z,10.70
2018-03-17T12:46:06.980Z,9.97
2018-03-17T12:48:35.344Z,7.23
2018-03-17T12:51:02.916Z,9.90
2018-03-17T12:53:30.408Z,9.23
2018-03-17T12:55:57.903Z,9.47
2018-03-17T12:58:25.398Z,9.87
2018-03-17T13:00:52.906Z,7.97
2018-03-17T13:03:20.410Z,11.00
2018-03-17T13:05:47.913Z,9.73
2018-03-17T13:08:15.877Z,10.37
2018-03-17T13:10:43.404Z,9.23
2018-03-17T13:13:12.317Z,10.23
2018-03-17T13:15:43.927Z,10.70
2018-03-17T13:18:12.200Z,9.90
2018-03-17T13:20:40.781Z,10.73
2018-03-17T13:23:14.137Z,9.93
2018-03-17T13:25:41.641Z,11.47
2018-03-17T13:28:32.404Z,9.03
2018-03-17T13:30:59.929Z,9.93
2018-03-17T13:33:27.432Z,9.57
2018-03-17T13:36:06.926Z,9.07
2018-03-17T13:38:34.459Z,9.57
2018-03-17T13:41:02.734Z,14.10
2018-03-17T13:43:30.302Z,12.33
2018-03-17T13:45:57.824Z,9.63
2018-03-17T13:48:25.334Z,7.53
2018-03-17T13:50:52.938Z,10.70
2018-03-17T13:53:22.430Z,11.23
2018-03-17T13:55:49.960Z,11.57
2018-03-17T13:58:17.449Z,10.30
2018-03-17T14:00:46.292Z,6.30
2018-03-17T14:03:13.798Z,9.17
2018-03-17T14:05:41.437Z,10.07
2018-03-17T14:08:08.967Z,10.30
2018-03-17T14:10:36.458Z,10.90
2018-03-17T14:13:03.956Z,12.53
2018-03-17T14:15:31.462Z,9.40
2018-03-17T14:17:59.032Z,9.27
2018-03-17T14:20:26.544Z,10.23
2018-03-17T14:22:54.814Z,11.50
2018-03-17T14:25:22.333Z,10.60
2018-03-17T14:27:49.833Z,11.13
2018-03-17T14:30:18.158Z,9.63
2018-03-17T14:32:45.653Z,10.67
2018-03-17T14:35:13.171Z,10.23
2018-03-17T14:37:40.685Z,10.37
2018-03-17T14:40:09.055Z,10.20
2018-03-17T14:42:36.696Z,10.77
2018-03-17T14:45:04.413Z,9.77
2018-03-17T14:47:32.053Z,10.27
2018-03-17T14:49:59.573Z,9.13
2018-03-17T14:52:27.170Z,10.40
2018-03-17T14:54:54.819Z,8.23
2018-03-17T14:57:22.332Z,9.40
2018-03-17T14:59:49.837Z,8.80
2018-03-17T15:02:17.329Z,9.90
2018-03-17T15:04:44.844Z,9.57
2018-03-17T15:07:12.355Z,5.40
2018-03-17T15:09:39.861Z,8.40
2018-03-17T15:12:07.395Z,8.50
2018-03-17T15:14:34.905Z,9.87
2018-03-17T15:17:02.413Z,9.70
2018-03-17T15:19:29.954Z,9.13
2018-03-17T15:21:57.473Z,9.93
2018-03-17T15:24:25.036Z,9.23
2018-03-17T15:26:53.327Z,8.87
2018-03-17T15:29:21.591Z,8.20
2018-03-17T15:31:49.101Z,6.37
2018-03-17T15:34:16.608Z,8.73
2018-03-17T15:36:44.192Z,7.10
2018-03-17T15:39:11.727Z,9.67
2018-03-17T15:41:39.315Z,10.27
2018-03-17T15:44:07.570Z,9.00
2018-03-17T15:46:35.273Z,8.60
2018-03-17T15:49:02.836Z,9.53
2018-03-17T15:51:30.449Z,10.47
2018-03-17T15:53:58.041Z,9.70
2018-03-17T15:56:25.638Z,10.10
2018-03-17T15:58:53.145Z,13.07
2018-03-17T16:01:20.663Z,10.43
2018-03-17T16:03:48.261Z,10.33
2018-03-17T16:06:15.769Z,8.63
2018-03-17T16:08:43.263Z,9.40
2018-03-17T16:11:11.060Z,9.07
2018-03-17T16:13:38.716Z,10.63
2018-03-17T16:16:06.215Z,9.60
2018-03-17T16:18:33.720Z,8.63
2018-03-17T16:21:01.233Z,9.63
2018-03-17T16:23:28.773Z,9.00
2018-03-17T16:25:56.332Z,9.20
2018-03-17T16:28:23.839Z,8.33
2018-03-17T16:30:51.536Z,10.20
2018-03-17T16:33:19.078Z,8.47
2018-03-17T16:35:46.594Z,9.10
2018-03-17T16:38:14.098Z,11.73
2018-03-17T16:40:41.599Z,9.07
2018-03-17T16:43:09.109Z,9.17
2018-03-17T16:45:36.612Z,8.23
2018-03-17T16:48:04.180Z,8.43
2018-03-17T16:50:31.636Z,8.87
2018-03-17T16:52:59.133Z,7.53
2018-03-17T16:55:26.640Z,10.07
2018-03-17T16:57:54.145Z,8.53
2018-03-17T17:00:21.659Z,9.63
2018-03-17T17:02:49.168Z,10.57
2018-03-17T17:05:16.754Z,10.47
2018-03-17T17:07:44.254Z,10.53
2018-03-17T17:10:12.532Z,8.33
2018-03-17T17:12:40.046Z,8.07
2018-03-17T17:15:07.579Z,10.10
2018-03-17T17:17:37.538Z,10.73
2018-03-17T17:20:05.076Z,10.07
2018-03-17T17:22:33.404Z,8.93
2018-03-17T17:25:00.888Z,10.83
2018-03-17T17:27:28.392Z,9.37
2018-03-17T17:29:55.897Z,9.97
2018-03-17T17:32:23.417Z,9.67
2018-03-17T17:34:51.000Z,9.07
2018-03-17T17:37:19.276Z,10.40
2018-03-17T17:39:46.775Z,9.33
2018-03-17T17:42:14.277Z,9.00
2018-03-17T17:44:42.542Z,9.60
2018-03-17T17:47:10.040Z,8.97
2018-03-17T17:49:37.541Z,9.83
2018-03-17T17:52:05.057Z,9.67
2018-03-17T17:54:32.561Z,9.77
2018-03-17T17:57:00.072Z,9.10
2018-03-17T17:59:27.574Z,9.43
2018-03-17T18:01:55.100Z,10.83
2018-03-17T18:04:22.600Z,9.97
2018-03-17T18:09:16.200Z,10.20
2018-03-17T18:11:43.696Z,11.03
2018-03-17T18:14:11.195Z,9.83
2018-03-17T18:16:38.687Z,8.57
2018-03-17T18:19:06.192Z,9.43
2018-03-17T18:21:33.743Z,9.77
2018-03-17T18:24:01.301Z,11.33
2018-03-17T18:26:33.743Z,9.87
2018-03-17T18:29:01.532Z,10.83
2018-03-17T18:31:29.462Z,10.93
2018-03-17T18:33:57.906Z,8.87
2018-03-17T18:36:25.507Z,9.53
2018-03-17T18:38:53.698Z,8.97
2018-03-17T18:41:24.491Z,8.47
2018-03-17T18:43:52.105Z,9.90
2018-03-17T18:46:19.994Z,10.87
2018-03-17T18:48:48.657Z,10.50
2018-03-17T18:51:16.151Z,8.13
2018-03-17T18:53:44.007Z,6.73
2018-03-17T18:56:11.498Z,7.53
2018-03-17T18:58:40.007Z,7.67
2018-03-17T19:01:09.449Z,8.83
2018-03-17T19:03:37.167Z,9.77
2018-03-17T19:06:04.691Z,8.27
2018-03-17T19:08:32.302Z,8.10
2018-03-17T19:10:59.832Z,9.70
2018-03-17T19:13:38.389Z,9.40
2018-03-17T19:16:06.679Z,8.80
2018-03-17T19:18:35.302Z,9.23
2018-03-17T19:21:02.943Z,8.90
2018-03-17T19:23:34.152Z,9.07
2018-03-17T19:26:01.635Z,8.33
2018-03-17T19:28:29.142Z,9.23
2018-03-17T19:30:57.399Z,10.13
2018-03-17T19:33:25.841Z,10.37
2018-03-17T19:35:53.363Z,9.27
2018-03-17T19:38:20.868Z,10.20
2018-03-17T19:40:48.363Z,8.73
2018-03-17T19:43:16.628Z,8.93
2018-03-17T19:45:44.240Z,10.17
2018-03-17T19:48:11.739Z,8.90
2018-03-17T19:50:39.564Z,9.80
2018-03-17T19:53:07.080Z,9.87
2018-03-17T19:55:35.389Z,6.97
2018-03-17T19:58:02.997Z,7.77
2018-03-17T20:00:31.291Z,8.77
2018-03-17T20:02:58.819Z,7.97
2018-03-17T20:05:26.315Z,6.80
2018-03-17T20:07:54.899Z,8.50
2018-03-17T20:10:23.188Z,7.87
2018-03-17T20:12:50.795Z,6.67
2018-03-17T20:15:18.291Z,7.37
2018-03-17T20:17:45.806Z,8.57
2018-03-17T20:20:13.307Z,9.00
2018-03-17T20:22:40.809Z,9.13
2018-03-17T20:25:09.246Z,10.47
2018-03-17T20:27:37.503Z,9.97
2018-03-17T20:30:05.016Z,10.50
2018-03-17T20:32:35.858Z,9.03
2018-03-17T20:35:03.352Z,9.93
2018-03-17T20:37:32.236Z,8.73
2018-03-17T20:39:59.759Z,8.23
2018-03-17T20:42:27.251Z,9.00
2018-03-17T20:44:54.757Z,9.00
2018-03-17T20:47:22.409Z,9.47
2018-03-17T20:49:49.956Z,9.93
2018-03-17T20:52:17.454Z,10.27
2018-03-17T20:54:44.951Z,8.47
2018-03-17T20:57:12.448Z,8.20
2018-03-17T20:59:44.409Z,8.33
2018-03-17T21:02:16.644Z,9.10
2018-03-17T21:04:44.172Z,8.00
2018-03-17T21:07:11.659Z,9.67
2018-03-17T21:09:39.196Z,9.57
2018-03-17T21:12:06.907Z,8.43
2018-03-17T21:14:38.264Z,7.77
2018-03-17T21:17:06.564Z,6.30
2018-03-17T21:19:34.139Z,8.80
2018-03-17T21:22:04.105Z,9.20
2018-03-17T21:24:35.553Z,8.63
2018-03-17T21:27:03.155Z,7.57
2018-03-17T21:29:31.732Z,9.43
2018-03-17T21:31:59.301Z,7.73
2018-03-17T21:34:26.937Z,11.23
2018-03-17T21:36:55.284Z,8.57
2018-03-17T21:39:22.873Z,8.20
2018-03-17T21:41:51.216Z,8.87
2018-03-17T21:44:18.826Z,10.47
2018-03-17T21:46:46.363Z,8.50
2018-03-17T21:49:13.919Z,12.03
2018-03-17T21:51:42.249Z,9.80
2018-03-17T21:54:09.824Z,9.63
2018-03-17T21:56:37.417Z,9.73
2018-03-17T21:59:05.969Z,9.23
2018-03-17T22:01:33.726Z,9.03
2018-03-17T22:04:01.308Z,11.00
2018-03-17T22:06:32.851Z,9.03
2018-03-17T22:09:00.468Z,8.13
2018-03-17T22:11:28.821Z,8.60
2018-03-17T22:13:56.509Z,8.93
2018-03-17T22:16:24.154Z,6.37
2018-03-17T22:18:52.542Z,7.23
2018-03-17T22:21:20.169Z,9.43
2018-03-17T22:23:47.752Z,7.77
2018-03-17T22:26:16.130Z,7.87
2018-03-17T22:28:43.740Z,9.63
2018-03-17T22:31:11.324Z,8.73
2018-03-17T22:33:38.920Z,5.73
2018-03-17T22:36:07.228Z,5.93
2018-03-17T22:38:34.901Z,8.37
2018-03-17T22:41:02.490Z,9.17
2018-03-17T22:43:30.041Z,7.87
2018-03-17T22:45:57.633Z,8.07
2018-03-17T22:48:25.174Z,8.87
2018-03-17T22:50:52.804Z,9.47
2018-03-17T22:53:20.388Z,9.30
2018-03-17T22:55:47.976Z,8.40
2018-03-17T22:58:16.336Z,9.23
2018-03-17T23:00:43.889Z,7.63
2018-03-17T23:03:13.039Z,8.13
2018-03-17T23:05:40.685Z,8.97
2018-03-17T23:08:08.297Z,9.23
2018-03-17T23:10:35.907Z,9.20
2018-03-17T23:13:04.251Z,9.13
2018-03-17T23:15:31.852Z,7.00
2018-03-17T23:18:23.230Z,8.33
2018-03-17T23:20:50.821Z,8.77
2018-03-17T23:23:18.417Z,7.90
2018-03-17T23:25:46.111Z,7.80
2018-03-17T23:28:13.680Z,7.43
2018-03-17T23:30:41.284Z,6.20
2018-03-17T23:33:08.894Z,8.10
2018-03-17T23:35:36.515Z,6.90
2018-03-17T23:38:04.083Z,8.77
2018-03-17T23:40:31.671Z,10.70
2018-03-17T23:42:59.262Z,10.10
2018-03-17T23:45:27.611Z,11.47
2018-03-17T23:47:55.236Z,12.60
2018-03-17T23:50:23.226Z,11.87
2018-03-17T23:52:50.800Z,7.30
2018-03-17T23:55:18.383Z,8.13
2018-03-17T23:57:45.914Z,8.73
